Time;durP1;ratioP1;P1;durP2;ratioP2;P2;SDS_P1;SDS_P2;PMS_P1;PMS_P2;Temp;Humidity;BMP_temperature;BMP_pressure;BME280_temperature;BME280_humidity;BME280_pressure;Samples;Min_cycle;Max_cycle;Signal;HPM_P1;HPM_P2
2022/07/23 00:00:15;;;;;;;;;;;;;;;18.46;100.00;99327.16;5071660;28;19925;-81
2022/07/23 00:02:42;;;;;;;;;;;;;;;18.69;100.00;99324.47;5056241;28;19931;-81
2022/07/23 00:05:09;;;;;;;;;;;;;;;18.84;100.00;99319.75;5071778;28;19948;-81
2022/07/23 00:07:38;;;;;;;;;;;;;;;18.24;100.00;99320.81;5054894;28;19931;-81
2022/07/23 00:10:05;;;;;;;;;;;;;;;17.87;100.00;99320.72;5055836;28;20470;-81
2022/07/23 00:12:33;;;;;;;;;;;;;;;18.26;100.00;99315.47;5071150;28;20345;-81
2022/07/23 00:15:00;;;;;;;;;;;;;;;18.61;100.00;99320.41;5056022;28;20031;-81
2022/07/23 00:17:28;;;;;;;;;;;;;;;18.53;100.00;99316.31;5054656;28;19925;-81
2022/07/23 00:19:55;;;;;;;;;;;;;;;18.75;100.00;99311.28;5055800;28;19924;-81
2022/07/23 00:22:22;;;;;;;;;;;;;;;18.86;100.00;99308.75;5055744;28;19931;-81
2022/07/23 00:24:49;;;;;;;;;;;;;;;18.97;100.00;99316.75;5054525;28;19929;-81
2022/07/23 00:27:29;;;;;;;;;;;;;;;18.93;100.00;99302.75;5054296;28;20323;-81
2022/07/23 00:29:57;;;;;;;;;;;;;;;18.91;100.00;99308.13;5071008;28;20277;-81
2022/07/23 00:32:24;;;;;;;;;;;;;;;18.40;100.00;99310.03;5055629;28;19970;-81
2022/07/23 00:35:05;;;;;;;;;;;;;;;17.86;100.00;99301.41;5088223;28;19924;-81
2022/07/23 00:37:32;;;;;;;;;;;;;;;18.38;100.00;99304.06;5054912;28;20373;-81
2022/07/23 00:39:59;;;;;;;;;;;;;;;18.63;100.00;99309.38;5054402;28;19925;-81
2022/07/23 00:42:26;;;;;;;;;;;;;;;18.73;100.00;99305.31;5054186;28;19956;-81
2022/07/23 00:44:53;;;;;;;;;;;;;;;18.71;100.00;99310.66;5054274;28;20009;-81
2022/07/23 00:47:20;;;;;;;;;;;;;;;18.50;100.00;99297.44;5054187;28;19932;-81
2022/07/23 00:49:48;;;;;;;;;;;;;;;18.38;100.00;99304.06;5053933;28;19931;-81
2022/07/23 00:52:15;;;;;;;;;;;;;;;18.62;100.00;99302.16;5054021;28;19940;-81
2022/07/23 00:54:42;;;;;;;;;;;;;;;18.77;100.00;99299.47;5087403;28;19974;-81
2022/07/23 00:57:09;;;;;;;;;;;;;;;18.47;100.00;99295.56;5053778;28;19925;-81
2022/07/23 00:59:41;;;;;;;;;;;;;;;18.38;100.00;99303.25;5053946;28;19929;-81
2022/07/23 01:02:08;;;;;;;;;;;;;;;18.58;100.00;99295.88;5053886;28;19929;-81
2022/07/23 01:04:35;;;;;;;;;;;;;;;18.82;100.00;99296.81;5053729;28;19925;-81
2022/07/23 01:07:03;;;;;;;;;;;;;;;18.82;100.00;99288.31;5070287;28;20023;-81
2022/07/23 01:09:31;;;;;;;;;;;;;;;18.86;100.00;99288.94;5053710;28;20437;-81
2022/07/23 01:11:59;;;;;;;;;;;;;;;18.65;100.00;99289.91;5054747;28;19951;-81
2022/07/23 01:14:26;;;;;;;;;;;;;;;18.88;100.00;99297.75;5053670;28;20399;-81
2022/07/23 01:16:53;;;;;;;;;;;;;;;18.56;100.00;99289.13;5054792;28;19925;-81
2022/07/23 01:19:21;;;;;;;;;;;;;;;18.55;100.00;99282.69;5053537;28;19960;-81
2022/07/23 01:21:49;;;;;;;;;;;;;;;18.33;100.00;99284.03;5053368;28;19925;-81
2022/07/23 01:24:18;;;;;;;;;;;;;;;18.10;100.00;99279.78;5054682;28;19964;-81
2022/07/23 01:26:54;;;;;;;;;;;;;;;17.84;100.00;99276.44;5084859;28;20382;-80
2022/07/23 01:29:22;;;;;;;;;;;;;;;17.98;100.00;99281.50;5053315;28;19932;-81
2022/07/23 01:31:49;;;;;;;;;;;;;;;17.94;100.00;99278.03;5069727;28;19925;-81
2022/07/23 01:34:16;;;;;;;;;;;;;;;18.03;100.00;99282.91;5086544;28;19931;-81
2022/07/23 01:36:44;;;;;;;;;;;;;;;17.99;100.00;99273.81;5053264;28;20338;-81
2022/07/23 01:39:12;;;;;;;;;;;;;;;18.02;100.00;99269.25;5053019;28;19925;-81
2022/07/23 01:41:39;;;;;;;;;;;;;;;18.27;100.00;99274.59;5053102;28;20296;-81
2022/07/23 01:44:06;;;;;;;;;;;;;;;18.57;100.00;99277.31;5086462;28;19931;-81
2022/07/23 01:46:33;;;;;;;;;;;;;;;18.68;100.00;99283.28;5053110;28;19925;-81
2022/07/23 01:49:00;;;;;;;;;;;;;;;18.71;100.00;99279.53;5051947;28;19925;-81
2022/07/23 01:51:59;;;;;;;;;;;;;;;18.70;100.00;99283.63;5053018;28;20303;-81
2022/07/23 01:54:46;;;;;;;;;;;;;;;18.79;100.00;99266.63;5038724;28;20295;-81
2022/07/23 01:57:14;;;;;;;;;;;;;;;18.78;100.00;99265.03;5052898;28;19931;-81
2022/07/23 01:59:42;;;;;;;;;;;;;;;18.85;100.00;99253.41;5036477;28;20338;-81
2022/07/23 02:02:10;;;;;;;;;;;;;;;18.80;100.00;99256.88;5052727;28;19970;-81
2022/07/23 02:04:37;;;;;;;;;;;;;;;18.75;100.00;99265.97;5052595;28;19925;-81
2022/07/23 02:07:04;;;;;;;;;;;;;;;18.65;100.00;99261.59;5052681;28;19952;-81
2022/07/23 02:09:32;;;;;;;;;;;;;;;18.62;100.00;99267.41;5069046;28;19925;-81
2022/07/23 02:11:59;;;;;;;;;;;;;;;18.43;100.00;99266.66;5086015;28;19925;-81
2022/07/23 02:14:27;;;;;;;;;;;;;;;17.87;100.00;99263.44;5052574;28;20309;-81
2022/07/23 02:16:55;;;;;;;;;;;;;;;18.00;100.00;99266.91;5069108;28;19924;-81
2022/07/23 02:19:22;;;;;;;;;;;;;;;18.32;100.00;99260.66;5035907;28;19925;-81
2022/07/23 02:21:49;;;;;;;;;;;;;;;18.49;100.00;99261.94;5053824;28;20078;-81
2022/07/23 02:24:18;;;;;;;;;;;;;;;18.53;100.00;99258.94;5053412;28;19936;-81
2022/07/23 02:26:45;;;;;;;;;;;;;;;18.48;100.00;99257.53;5035464;28;19948;-81
2022/07/23 02:29:13;;;;;;;;;;;;;;;18.45;100.00;99258.47;5052435;28;19925;-81
2022/07/23 02:31:40;;;;;;;;;;;;;;;18.38;100.00;99249.50;5052149;28;19925;-81
2022/07/23 02:34:11;;;;;;;;;;;;;;;18.50;100.00;99260.66;5035664;28;19928;-81
2022/07/23 02:36:39;;;;;;;;;;;;;;;18.54;100.00;99264.13;5035676;28;19937;-81
2022/07/23 02:39:06;;;;;;;;;;;;;;;18.51;100.00;99250.16;5019051;28;19993;-81
2022/07/23 02:41:35;;;;;;;;;;;;;;;18.29;100.00;99244.63;5085483;28;19925;-81
2022/07/23 02:44:02;;;;;;;;;;;;;;;17.79;100.00;99245.97;5052075;28;19976;-81
2022/07/23 02:46:30;;;;;;;;;;;;;;;18.10;100.00;99240.19;5068402;28;19928;-81
2022/07/23 02:48:58;;;;;;;;;;;;;;;18.09;100.00;99241.47;5051957;28;19925;-81
2022/07/23 02:51:25;;;;;;;;;;;;;;;17.59;100.00;99244.81;5052083;28;20293;-81
2022/07/23 02:53:57;;;;;;;;;;;;;;;17.28;100.00;99255.34;5036134;28;20008;-81
2022/07/23 02:56:24;;;;;;;;;;;;;;;17.19;100.00;99258.13;5051861;28;20358;-81
2022/07/23 02:58:51;;;;;;;;;;;;;;;17.53;100.00;99250.28;5068308;28;19932;-81
2022/07/23 03:01:21;;;;;;;;;;;;;;;17.67;100.00;99254.56;5051650;28;19948;-81
2022/07/23 03:03:48;;;;;;;;;;;;;;;17.91;100.00;99252.75;5051782;28;19924;-81
2022/07/23 03:06:15;;;;;;;;;;;;;;;18.12;100.00;99251.81;5051651;28;19970;-81
2022/07/23 03:08:42;;;;;;;;;;;;;;;18.13;100.00;99259.03;5051811;28;19931;-81
2022/07/23 03:11:12;;;;;;;;;;;;;;;18.02;100.00;99258.75;5051586;28;19925;-81
2022/07/23 03:13:41;;;;;;;;;;;;;;;17.70;100.00;99262.13;5085409;28;20437;-81
2022/07/23 03:16:08;;;;;;;;;;;;;;;16.82;100.00;99262.00;5051735;28;19935;-81
2022/07/23 03:18:36;;;;;;;;;;;;;;;16.63;100.00;99254.66;5051804;28;19925;-81
2022/07/23 03:21:03;;;;;;;;;;;;;;;17.14;100.00;99255.91;5034841;28;20296;-81
2022/07/23 03:23:30;;;;;;;;;;;;;;;17.28;100.00;99255.34;5051626;28;20370;-81
2022/07/23 03:25:57;;;;;;;;;;;;;;;17.48;100.00;99253.72;5051244;28;19925;-81
2022/07/23 03:28:24;;;;;;;;;;;;;;;17.33;100.00;99251.91;5035145;28;19924;-81
2022/07/23 03:30:52;;;;;;;;;;;;;;;17.43;100.00;99233.75;5051286;28;19925;-81
2022/07/23 03:33:20;;;;;;;;;;;;;;;17.09;100.00;99242.38;5084993;28;19932;-81
2022/07/23 03:35:48;;;;;;;;;;;;;;;16.49;100.00;99238.25;5051289;28;19924;-81
2022/07/23 03:38:21;;;;;;;;;;;;;;;16.18;100.00;99241.75;5051480;28;20466;-81
2022/07/23 03:40:49;;;;;;;;;;;;;;;16.43;100.00;99240.06;5051402;28;20388;-81
2022/07/23 03:43:16;;;;;;;;;;;;;;;16.90;100.00;99247.16;5051479;28;20030;-81
2022/07/23 03:45:44;;;;;;;;;;;;;;;17.07;100.00;99245.66;5034923;28;19925;-81
2022/07/23 03:48:11;;;;;;;;;;;;;;;17.08;100.00;99249.28;5052531;28;19963;-81
2022/07/23 03:50:39;;;;;;;;;;;;;;;16.80;100.00;99239.06;5084570;28;19927;-81
2022/07/23 03:53:06;;;;;;;;;;;;;;;16.73;100.00;99247.81;5051364;28;19943;-81
2022/07/23 03:55:35;;;;;;;;;;;;;;;16.96;100.00;99247.34;5034746;28;19925;-81
2022/07/23 03:58:02;;;;;;;;;;;;;;;16.72;100.00;99244.22;5051379;28;19925;-81
2022/07/23 04:00:30;;;;;;;;;;;;;;;16.47;100.00;99252.03;5067708;28;20307;-81
2022/07/23 04:02:57;;;;;;;;;;;;;;;16.58;100.00;99252.44;5051268;28;19924;-81
2022/07/23 04:05:24;;;;;;;;;;;;;;;16.73;100.00;99247.81;5084454;28;19963;-81
2022/07/23 04:07:59;;;;;;;;;;;;;;;16.76;100.00;99241.25;5035813;28;19929;-81
2022/07/23 04:10:26;;;;;;;;;;;;;;;16.78;100.00;99239.53;5051069;28;19925;-81
2022/07/23 04:12:58;;;;;;;;;;;;;;;16.78;100.00;99238.78;5054518;28;19925;-81
2022/07/23 04:15:25;;;;;;;;;;;;;;;16.66;100.00;99236.81;5088317;28;19974;-81
2022/07/23 04:17:52;;;;;;;;;;;;;;;16.61;100.00;99234.59;5054796;28;19924;-81
2022/07/23 04:20:19;;;;;;;;;;;;;;;16.57;100.00;99240.34;5054414;28;20087;-81
2022/07/23 04:22:54;;;;;;;;;;;;;;;16.57;100.00;99239.56;5088370;28;19932;-80
2022/07/23 04:25:21;;;;;;;;;;;;;;;16.44;100.00;99230.38;5054470;28;19924;-80
2022/07/23 04:27:49;;;;;;;;;;;;;;;16.35;100.00;99233.09;5054573;28;19928;-81
2022/07/23 04:30:16;;;;;;;;;;;;;;;16.26;100.00;99222.56;5054616;28;19929;-81
2022/07/23 04:32:43;;;;;;;;;;;;;;;16.29;100.00;99224.44;5054419;28;20340;-81
2022/07/23 04:35:23;;;;;;;;;;;;;;;16.31;100.00;99226.81;5054289;28;19925;-81
2022/07/23 04:37:55;;;;;;;;;;;;;;;16.36;100.00;99229.06;5054529;28;19971;-81
2022/07/23 04:40:23;;;;;;;;;;;;;;;16.34;100.00;99225.91;5054316;28;19924;-81
2022/07/23 04:42:50;;;;;;;;;;;;;;;16.22;100.00;99230.34;5070751;28;19928;-81
2022/07/23 04:45:17;;;;;;;;;;;;;;;16.14;100.00;99229.81;5070965;28;19999;-81
2022/07/23 04:47:44;;;;;;;;;;;;;;;16.12;100.00;99228.69;5054279;28;19925;-81
2022/07/23 04:50:12;;;;;;;;;;;;;;;16.03;100.00;99231.44;5070505;28;19968;-81
2022/07/23 04:52:40;;;;;;;;;;;;;;;15.72;100.00;99236.91;5054066;28;19932;-81
2022/07/23 04:55:07;;;;;;;;;;;;;;;15.57;100.00;99237.88;5053880;28;19969;-81
2022/07/23 04:57:34;;;;;;;;;;;;;;;16.06;100.00;99234.13;5070398;28;19931;-81
2022/07/23 05:00:02;;;;;;;;;;;;;;;16.31;100.00;99244.53;5053918;28;19932;-81
2022/07/23 05:02:30;;;;;;;;;;;;;;;16.41;100.00;99234.09;5053736;28;19955;-81
2022/07/23 05:04:58;;;;;;;;;;;;;;;16.57;100.00;99228.28;5054014;28;19931;-81
2022/07/23 05:07:26;;;;;;;;;;;;;;;16.55;100.00;99230.78;5054103;28;19947;-81
2022/07/23 05:09:54;;;;;;;;;;;;;;;16.58;100.00;99229.88;5053538;28;20027;-81
2022/07/23 05:12:21;;;;;;;;;;;;;;;16.49;100.00;99226.97;5053576;28;19946;-81
2022/07/23 05:14:48;;;;;;;;;;;;;;;16.38;100.00;99235.81;5053707;28;19925;-81
2022/07/23 05:17:15;;;;;;;;;;;;;;;16.71;100.00;99241.84;5053490;28;20031;-81
2022/07/23 05:19:42;;;;;;;;;;;;;;;16.81;100.00;99241.44;5070193;28;19925;-81
2022/07/23 05:22:09;;;;;;;;;;;;;;;16.44;100.00;99247.28;5069896;28;20039;-81
2022/07/23 05:24:36;;;;;;;;;;;;;;;16.18;100.00;99246.59;5054456;28;19929;-80
2022/07/23 05:27:04;;;;;;;;;;;;;;;16.60;100.00;99233.03;5036835;28;19932;-80
2022/07/23 05:29:31;;;;;;;;;;;;;;;16.68;100.00;99235.09;5054580;28;19932;-80
2022/07/23 05:31:59;;;;;;;;;;;;;;;16.91;100.00;99239.47;5036699;28;19931;-81
2022/07/23 05:34:28;;;;;;;;;;;;;;;17.03;100.00;99239.38;5053386;28;20311;-81
2022/07/23 05:36:57;;;;;;;;;;;;;;;17.10;100.00;99238.31;5053339;28;19960;-81
2022/07/23 05:39:24;;;;;;;;;;;;;;;17.34;100.00;99239.38;5036705;28;19932;-81
2022/07/23 05:41:51;;;;;;;;;;;;;;;17.22;100.00;99237.44;5036482;28;19925;-81
2022/07/23 05:44:20;;;;;;;;;;;;;;;17.18;100.00;99239.59;5036811;28;20303;-81
2022/07/23 05:46:47;;;;;;;;;;;;;;;17.38;100.00;99226.69;5053036;28;20358;-81
2022/07/23 05:49:19;;;;;;;;;;;;;;;17.44;100.00;99224.06;5053057;28;20354;-81
2022/07/23 05:52:05;;;;;;;;;;;;;;;17.52;100.00;99225.34;5086428;28;19924;-81
2022/07/23 05:54:55;;;;;;;;;;;;;;;17.69;100.00;99221.75;5031677;28;19925;-81
2022/07/23 05:57:23;;;;;;;;;;;;;;;17.73;100.00;99213.94;5031907;28;19932;-81
2022/07/23 05:59:52;;;;;;;;;;;;;;;17.80;100.00;99219.28;5015119;28;19932;-81
2022/07/23 06:02:19;;;;;;;;;;;;;;;18.04;100.00;99216.63;5015030;28;20312;-81
2022/07/23 06:04:47;;;;;;;;;;;;;;;18.10;100.00;99226.06;5015476;28;19925;-81
2022/07/23 06:07:26;;;;;;;;;;;;;;;18.28;100.00;99230.94;5031814;28;19936;-81
2022/07/23 06:09:53;;;;;;;;;;;;;;;18.41;100.00;99226.72;4998578;28;20396;-81
2022/07/23 06:12:22;;;;;;;;;;;;;;;18.08;100.00;99222.94;5015200;28;19929;-81
2022/07/23 06:14:49;;;;;;;;;;;;;;;17.80;100.00;99215.66;5014841;28;19964;-81
2022/07/23 06:17:16;;;;;;;;;;;;;;;18.03;100.00;99220.72;5015115;28;19937;-81
2022/07/23 06:19:43;;;;;;;;;;;;;;;18.44;100.00;99225.00;5015002;28;19928;-81
2022/07/23 06:22:10;;;;;;;;;;;;;;;18.69;100.00;99216.94;5014956;28;19925;-81
2022/07/23 06:24:38;;;;;;;;;;;;;;;18.81;100.00;99218.78;5014648;28;20339;-81
2022/07/23 06:27:05;;;;;;;;;;;;;;;18.73;100.00;99222.44;5014930;28;19925;-81
2022/07/23 06:29:32;;;;;;;;;;;;;;;18.77;100.00;99221.00;5030934;28;20389;-81
2022/07/23 06:31:59;;;;;;;;;;;;;;;19.17;100.00;99218.69;5015027;28;20368;-81
2022/07/23 06:34:27;;;;;;;;;;;;;;;19.44;100.00;99215.78;5051837;28;20507;-81
2022/07/23 06:36:55;;;;;;;;;;;;;;;19.58;100.00;99212.22;5052221;28;19925;-81
2022/07/23 06:39:22;;;;;;;;;;;;;;;19.57;100.00;99213.50;5085482;28;20429;-81
2022/07/23 06:41:49;;;;;;;;;;;;;;;19.69;100.00;99215.31;5052049;28;19935;-81
2022/07/23 06:44:18;;;;;;;;;;;;;;;19.84;100.00;99211.75;5085423;28;19924;-81
2022/07/23 06:46:48;;;;;;;;;;;;;;;19.99;100.00;99213.41;5052093;28;20388;-81
2022/07/23 06:49:15;;;;;;;;;;;;;;;20.04;100.00;99218.38;5052016;28;19924;-81
2022/07/23 06:51:42;;;;;;;;;;;;;;;20.12;100.00;99215.97;5051882;28;19925;-81
2022/07/23 06:54:10;;;;;;;;;;;;;;;20.02;100.00;99217.31;5051708;28;19925;-81
2022/07/23 06:56:38;;;;;;;;;;;;;;;20.14;100.00;99216.31;5068591;28;19931;-81
2022/07/23 06:59:05;;;;;;;;;;;;;;;20.23;100.00;99207.72;5085080;28;20360;-81
2022/07/23 07:01:32;;;;;;;;;;;;;;;20.25;100.00;99208.03;5051900;28;20442;-81
2022/07/23 07:03:59;;;;;;;;;;;;;;;20.28;100.00;99207.81;5051833;28;20011;-81
2022/07/23 07:06:26;;;;;;;;;;;;;;;20.51;100.00;99206.97;5052895;28;19924;-81
2022/07/23 07:08:54;;;;;;;;;;;;;;;20.66;100.00;99207.78;5051552;28;19929;-81
2022/07/23 07:11:21;;;;;;;;;;;;;;;21.08;100.00;99204.69;5052896;28;19924;-81
2022/07/23 07:13:48;;;;;;;;;;;;;;;21.36;100.00;99194.53;5035173;28;19931;-81
2022/07/23 07:16:15;;;;;;;;;;;;;;;21.66;100.00;99204.53;5051716;28;19924;-81
2022/07/23 07:18:42;;;;;;;;;;;;;;;21.89;100.00;99203.63;5052817;28;19965;-81
2022/07/23 07:21:09;;;;;;;;;;;;;;;22.06;100.00;99204.63;5068197;28;20315;-81
2022/07/23 07:23:37;;;;;;;;;;;;;;;22.17;100.00;99196.22;5051599;28;19925;-81
2022/07/23 07:26:04;;;;;;;;;;;;;;;22.24;100.00;99198.63;5052629;28;20391;-81
2022/07/23 07:28:31;;;;;;;;;;;;;;;22.18;100.00;99200.63;5052540;28;20388;-81
2022/07/23 07:30:58;;;;;;;;;;;;;;;22.18;100.00;99202.69;5052730;28;20013;-81
2022/07/23 07:33:26;;;;;;;;;;;;;;;21.61;100.00;99196.75;5068248;28;19927;-81
2022/07/23 07:35:53;;;;;;;;;;;;;;;21.00;100.00;99203.50;5052672;28;19979;-81
2022/07/23 07:38:20;;;;;;;;;;;;;;;21.13;100.00;99207.63;5068012;28;19924;-81
2022/07/23 07:40:47;;;;;;;;;;;;;;;21.22;100.00;99209.53;5052632;28;19924;-81
2022/07/23 07:43:14;;;;;;;;;;;;;;;21.37;100.00;99196.13;5068005;28;20295;-81
2022/07/23 07:45:41;;;;;;;;;;;;;;;21.73;100.00;99198.47;5051407;28;19925;-81
2022/07/23 07:48:09;;;;;;;;;;;;;;;22.15;100.00;99203.69;5056408;28;19978;-81
2022/07/23 07:50:36;;;;;;;;;;;;;;;22.76;100.00;99199.50;5038658;28;19931;-81
2022/07/23 07:53:03;;;;;;;;;;;;;;;22.91;100.00;99200.16;5056378;28;20015;-81
2022/07/23 07:55:31;;;;;;;;;;;;;;;23.68;100.00;99199.97;5056369;28;19990;-81
2022/07/23 07:57:58;;;;;;;;;;;;;;;23.90;100.00;99192.31;5088159;28;19927;-82
2022/07/23 08:00:25;;;;;;;;;;;;;;;23.83;100.00;99192.81;5071683;28;19932;-81
2022/07/23 08:02:54;;;;;;;;;;;;;;;23.73;100.00;99187.84;5056278;28;19931;-81
2022/07/23 08:05:22;;;;;;;;;;;;;;;23.73;100.00;99185.78;5056207;28;19939;-81
2022/07/23 08:07:53;;;;;;;;;;;;;;;23.66;100.00;99182.63;5056138;28;19948;-80
2022/07/23 08:10:20;;;;;;;;;;;;;;;23.61;100.00;99183.34;5056145;28;19929;-81
2022/07/23 08:12:48;;;;;;;;;;;;;;;23.62;100.00;99184.91;5054780;28;20001;-81
2022/07/23 08:15:18;;;;;;;;;;;;;;;23.55;100.00;99186.19;5056159;28;20388;-81
2022/07/23 08:17:46;;;;;;;;;;;;;;;23.28;100.00;99188.84;5071383;28;19925;-81
2022/07/23 08:20:15;;;;;;;;;;;;;;;23.00;100.00;99191.41;5055828;28;20019;-80
2022/07/23 08:22:42;;;;;;;;;;;;;;;23.17;100.00;99193.13;5054617;28;19932;-80
2022/07/23 08:25:10;;;;;;;;;;;;;;;23.28;100.00;99194.53;5037740;28;19925;-81
2022/07/23 08:27:38;;;;;;;;;;;;;;;23.67;100.00;99184.16;5055776;28;20372;-80
2022/07/23 08:30:05;;;;;;;;;;;;;;;23.87;100.00;99186.88;5055649;28;19925;-80
2022/07/23 08:32:32;;;;;;;;;;;;;;;22.99;100.00;99193.47;5071085;28;19924;-80
2022/07/23 08:35:10;;;;;;;;;;;;;;;23.11;100.00;99186.59;5055863;28;20404;-80
2022/07/23 08:37:37;;;;;;;;;;;;;;;22.33;100.00;99175.72;5071234;28;19925;-80
2022/07/23 08:40:05;;;;;;;;;;;;;;;23.42;100.00;99174.41;5053990;28;19964;-80
2022/07/23 08:42:36;;;;;;;;;;;;;;;22.32;100.00;99179.06;5055535;28;19925;-80
2022/07/23 08:45:03;;;;;;;;;;;;;;;22.25;100.00;99185.97;5054369;28;19932;-80
2022/07/23 08:47:31;;;;;;;;;;;;;;;21.80;100.00;99175.31;5055396;28;19935;-80
2022/07/23 08:49:58;;;;;;;;;;;;;;;21.44;100.00;99187.19;5055232;28;20075;-80
2022/07/23 08:52:26;;;;;;;;;;;;;;;22.56;100.00;99188.94;5070691;28;19970;-80
2022/07/23 08:54:54;;;;;;;;;;;;;;;22.07;100.00;99194.78;5054901;28;19928;-80
2022/07/23 08:57:22;;;;;;;;;;;;;;;22.76;100.00;99182.41;5070086;28;19932;-80
2022/07/23 08:59:49;;;;;;;;;;;;;;;22.91;100.00;99183.84;5087087;28;19925;-80
2022/07/23 09:02:16;;;;;;;;;;;;;;;22.99;100.00;99189.88;5055235;28;19925;-80
2022/07/23 09:04:44;;;;;;;;;;;;;;;23.46;100.00;99182.75;5053293;28;19951;-80
2022/07/23 09:07:11;;;;;;;;;;;;;;;23.00;100.00;99186.50;5054796;28;19936;-80
2022/07/23 09:09:39;;;;;;;;;;;;;;;21.96;100.00;99191.03;5054319;28;19929;-81
2022/07/23 09:12:07;;;;;;;;;;;;;;;22.66;100.00;99189.53;5053190;28;19928;-81
2022/07/23 09:14:39;;;;;;;;;;;;;;;22.61;100.00;99191.03;5054452;28;19928;-81
2022/07/23 09:17:10;;;;;;;;;;;;;;;22.37;100.00;99184.78;5069936;28;19928;-80
2022/07/23 09:19:39;;;;;;;;;;;;;;;22.74;100.00;99180.06;5054603;28;19925;-80
2022/07/23 09:22:21;;;;;;;;;;;;;;;21.57;100.00;99184.78;5053329;28;19932;-80
2022/07/23 09:25:11;;;;;;;;;;;;;;;22.76;100.00;99199.50;5053065;28;19924;-80
2022/07/23 09:27:45;;;;;;;;;;;;;;;23.64;100.00;99200.25;5054522;28;20078;-80
2022/07/23 09:30:14;;;;;;;;;;;;;;;23.69;100.00;99190.16;5054415;28;20020;-80
2022/07/23 09:32:42;;;;;;;;;;;;;;;22.99;100.00;99182.09;5052915;28;19925;-81
2022/07/23 09:35:09;;;;;;;;;;;;;;;23.54;100.00;99178.13;5054294;28;19979;-80
2022/07/23 09:37:36;;;;;;;;;;;;;;;24.00;100.00;99172.97;5055685;28;19932;-81
2022/07/23 09:40:07;;;;;;;;;;;;;;;23.53;100.00;99176.56;5053127;28;19978;-80
2022/07/23 09:42:35;;;;;;;;;;;;;;;23.09;100.00;99191.25;5036388;28;20305;-80
2022/07/23 09:45:02;;;;;;;;;;;;;;;23.55;100.00;99186.19;5052870;28;19940;-80
2022/07/23 09:47:31;;;;;;;;;;;;;;;23.63;100.00;99183.63;5052959;28;19956;-80
2022/07/23 09:50:01;;;;;;;;;;;;;;;22.67;100.00;99186.19;5052907;28;19925;-80
2022/07/23 09:52:30;;;;;;;;;;;;;;;23.66;100.00;99176.91;5053757;28;20027;-80
2022/07/23 09:54:59;;;;;;;;;;;;;;;24.34;100.00;99155.44;5069328;28;20034;-81
2022/07/23 09:57:27;;;;;;;;;;;;;;;24.78;100.00;99154.75;5053904;28;19939;-81
2022/07/23 09:59:57;;;;;;;;;;;;;;;24.87;100.00;99154.50;5053831;28;19932;-80
2022/07/23 10:02:25;;;;;;;;;;;;;;;23.67;100.00;99158.50;5052427;28;20020;-81
2022/07/23 10:05:25;;;;;;;;;;;;;;;24.75;100.00;99152.94;5052547;28;20169;-80
2022/07/23 10:08:31;;;;;;;;;;;;;;;24.25;100.00;99152.06;5027060;28;19937;-81
2022/07/23 10:11:17;;;;;;;;;;;;;;;24.06;100.00;99150.94;5010868;28;19926;-80
2022/07/23 10:13:55;;;;;;;;;;;;;;;23.98;100.00;99156.34;5027320;28;19925;-81
2022/07/23 10:16:42;;;;;;;;;;;;;;;24.65;100.00;99151.63;5011066;28;20285;-81
2022/07/23 10:19:10;;;;;;;;;;;;;;;25.31;100.00;99150.88;5011378;28;20365;-80
2022/07/23 10:21:40;;;;;;;;;;;;;;;25.03;100.00;99150.88;5011376;28;19948;-80
2022/07/23 10:24:07;;;;;;;;;;;;;;;25.32;100.00;99158.13;5011620;28;19925;-80
2022/07/23 10:26:40;;;;;;;;;;;;;;;25.50;100.00;99146.97;4994964;28;19926;-80
2022/07/23 10:29:07;;;;;;;;;;;;;;;24.10;100.00;99157.16;4994937;28;20407;-80
2022/07/23 10:31:48;;;;;;;;;;;;;;;24.29;100.00;99146.88;5010911;28;19931;-80
2022/07/23 10:34:26;;;;;;;;;;;;;;;24.79;100.00;99150.63;4994957;28;19929;-80
2022/07/23 10:37:00;;;;;;;;;;;;;;;24.08;100.00;99136.94;5010872;28;20376;-81
2022/07/23 10:39:31;;;;;;;;;;;;;;;25.20;100.00;99142.31;5012336;28;19964;-81
2022/07/23 10:42:15;;;;;;;;;;;;;;;24.66;100.00;99148.25;5013420;28;19925;-81
2022/07/23 10:44:47;;;;;;;;;;;;;;;24.31;100.00;99144.28;5012316;28;19925;-80
2022/07/23 10:47:41;;;;;;;;;;;;;;;24.53;100.00;99144.31;5028471;28;19926;-80
2022/07/23 10:50:27;;;;;;;;;;;;;;;25.05;100.00;99144.66;5013345;28;19971;-80
2022/07/23 10:53:12;;;;;;;;;;;;;;;24.57;100.00;99151.34;5013206;28;19933;-80
2022/07/23 10:55:41;;;;;;;;;;;;;;;24.83;100.00;99151.13;5012070;28;20380;-80
2022/07/23 10:58:08;;;;;;;;;;;;;;;24.22;100.00;99142.41;5013044;28;19933;-80
2022/07/23 11:00:36;;;;;;;;;;;;;;;23.32;100.00;99144.56;5027864;28;19925;-80
2022/07/23 11:03:07;;;;;;;;;;;;;;;24.03;100.00;99140.53;5013070;28;19932;-80
2022/07/23 11:05:42;;;;;;;;;;;;;;;23.78;100.00;99135.75;5011795;28;20377;-80
2022/07/23 11:08:11;;;;;;;;;;;;;;;24.15;100.00;99142.94;5013006;28;19925;-80
2022/07/23 11:10:38;;;;;;;;;;;;;;;24.48;100.00;99142.22;5011779;28;19937;-80
2022/07/23 11:13:23;;;;;;;;;;;;;;;23.96;100.00;99143.91;5012917;28;19951;-80
2022/07/23 11:16:17;;;;;;;;;;;;;;;23.88;100.00;99151.34;5012913;28;19932;-80
2022/07/23 11:18:44;;;;;;;;;;;;;;;23.46;100.00;99154.22;5013255;28;19930;-80
2022/07/23 11:21:23;;;;;;;;;;;;;;;23.44;100.00;99159.66;5013570;28;19925;-80
2022/07/23 11:23:56;;;;;;;;;;;;;;;22.77;100.00;99164.81;5017118;28;19948;-80
2022/07/23 11:26:41;;;;;;;;;;;;;;;23.13;100.00;99165.38;5050270;28;19933;-80
2022/07/23 11:29:36;;;;;;;;;;;;;;;23.20;100.00;99164.91;5056497;28;19974;-80
2022/07/23 11:32:23;;;;;;;;;;;;;;;23.33;100.00;99163.22;5055586;28;20043;-80
2022/07/23 11:34:53;;;;;;;;;;;;;;;23.29;100.00;99159.81;5072186;28;19932;-80
2022/07/23 11:37:28;;;;;;;;;;;;;;;23.31;100.00;99165.78;5056681;28;19932;-80
2022/07/23 11:39:56;;;;;;;;;;;;;;;23.55;100.00;99154.03;5056659;28;19983;-80
2022/07/23 11:42:23;;;;;;;;;;;;;;;23.52;100.00;99163.59;5055368;28;19925;-80
2022/07/23 11:44:52;;;;;;;;;;;;;;;23.48;100.00;99154.50;5056511;28;19961;-80
2022/07/23 11:47:24;;;;;;;;;;;;;;;23.50;100.00;99157.63;5056460;28;20028;-80
2022/07/23 11:49:52;;;;;;;;;;;;;;;23.22;100.00;99162.34;5056216;28;20031;-80
2022/07/23 11:52:19;;;;;;;;;;;;;;;23.33;100.00;99157.50;5055111;28;20384;-80
2022/07/23 11:54:51;;;;;;;;;;;;;;;23.30;100.00;99160.59;5054860;28;19925;-80
2022/07/23 11:57:20;;;;;;;;;;;;;;;23.36;100.00;99167.09;5054765;28;19924;-80
2022/07/23 11:59:50;;;;;;;;;;;;;;;23.62;100.00;99168.59;5055948;28;19971;-80
2022/07/23 12:02:19;;;;;;;;;;;;;;;23.30;100.00;99169.94;5054953;28;20304;-80
2022/07/23 12:04:47;;;;;;;;;;;;;;;23.39;100.00;99171.78;5055806;28;19925;-80
2022/07/23 12:07:25;;;;;;;;;;;;;;;23.41;100.00;99166.38;5054934;28;19925;-80
2022/07/23 12:09:52;;;;;;;;;;;;;;;23.07;100.00;99174.66;5055886;28;19936;-80
2022/07/23 12:12:19;;;;;;;;;;;;;;;22.73;100.00;99172.78;5055811;28;19928;-80
2022/07/23 12:14:55;;;;;;;;;;;;;;;22.10;100.00;99175.97;5055870;28;19925;-80
2022/07/23 12:17:30;;;;;;;;;;;;;;;22.83;100.00;99171.34;5055734;28;19935;-80
2022/07/23 12:19:58;;;;;;;;;;;;;;;23.29;100.00;99167.59;5054788;28;19932;-80
2022/07/23 12:22:26;;;;;;;;;;;;;;;22.56;100.00;99173.91;5038135;28;19932;-80
2022/07/23 12:24:53;;;;;;;;;;;;;;;22.95;100.00;99175.84;5055667;28;20012;-80
2022/07/23 12:27:20;;;;;;;;;;;;;;;22.75;100.00;99158.81;5054491;28;20011;-80
2022/07/23 12:29:48;;;;;;;;;;;;;;;23.03;100.00;99165.56;5054490;28;19924;-80
2022/07/23 12:32:18;;;;;;;;;;;;;;;22.74;100.00;99174.34;5054708;28;19947;-80
2022/07/23 12:34:45;;;;;;;;;;;;;;;22.23;100.00;99162.13;5054349;28;19924;-80
2022/07/23 12:37:29;;;;;;;;;;;;;;;21.70;100.00;99156.81;5070897;28;20031;-80
2022/07/23 12:39:56;;;;;;;;;;;;;;;21.73;100.00;99155.00;5087607;28;19929;-80
2022/07/23 12:42:24;;;;;;;;;;;;;;;22.22;100.00;99155.66;5054169;28;19925;-80
2022/07/23 12:45:11;;;;;;;;;;;;;;;22.97;100.00;99156.19;5055424;28;20012;-80
2022/07/23 12:47:54;;;;;;;;;;;;;;;22.79;100.00;99148.00;5055093;28;20019;-80